Terminal Aerodrome Forecast
Issued by NWS Louisville, KY

Home | Current Version | Previous Version | Text Only | Print | Product List | Glossary On
Versions: 1 2 3 4 5 6 7 8 9 10 11 12 13 14 15 16
502
FTUS43 KLMK 191340 AAA
TAFSDF
TAF AMD
KSDF 191340Z 1914/2018 18013KT P6SM BKN018 WS020/21050KT
     FM191500 20014G23KT P6SM BKN025
     FM191600 20015G25KT P6SM SCT025 BKN040
     FM200300 19011G16KT P6SM BKN200 WS020/20047KT
     FM200800 19013KT P6SM BKN050 WS020/20045KT=

USA.gov is the U.S. government's official web portal to all federal, state and local government web resources and services.